createdAt,value
2018-12-11T00:00:02.685Z,12.98
2018-12-11T00:02:32.413Z,10.30
2018-12-11T00:05:01.033Z,10.50
2018-12-11T00:07:29.629Z,11.13
2018-12-11T00:09:58.169Z,11.28
2018-12-11T00:12:26.757Z,11.93
2018-12-11T00:14:55.424Z,11.33
2018-12-11T00:17:23.981Z,11.48
2018-12-11T00:19:52.559Z,11.38
2018-12-11T00:22:21.703Z,11.73
2018-12-11T00:24:50.390Z,11.25
2018-12-11T00:27:19.025Z,10.45
2018-12-11T00:29:48.187Z,11.70
2018-12-11T00:32:17.447Z,11.48
2018-12-11T00:34:46.027Z,11.47
2018-12-11T00:37:14.679Z,11.33
2018-12-11T00:39:43.253Z,10.30
2018-12-11T00:42:11.919Z,10.10
2018-12-11T00:44:41.478Z,10.88
2018-12-11T00:47:10.003Z,10.13
2018-12-11T00:49:38.523Z,10.48
2018-12-11T00:52:07.096Z,10.28
2018-12-11T00:54:36.011Z,10.20
2018-12-11T00:57:05.535Z,12.07
2018-12-11T00:59:36.351Z,11.43
2018-12-11T01:02:05.274Z,11.30
2018-12-11T01:04:33.913Z,11.10
2018-12-11T01:07:02.429Z,10.28
2018-12-11T01:09:31.358Z,10.85
2018-12-11T01:12:00.049Z,9.48
2018-12-11T01:14:28.597Z,10.68
2018-12-11T01:16:57.388Z,10.32
2018-12-11T01:19:26.090Z,10.30
2018-12-11T01:21:54.655Z,10.80
2018-12-11T01:24:23.200Z,9.20
2018-12-11T01:26:52.025Z,10.85
2018-12-11T01:29:20.579Z,10.58
2018-12-11T01:31:50.014Z,10.72
2018-12-11T01:34:18.579Z,10.40
2018-12-11T01:36:47.212Z,10.30
2018-12-11T01:39:15.909Z,9.63
2018-12-11T01:41:44.479Z,11.70
2018-12-11T01:44:12.989Z,10.85
2018-12-11T01:46:43.966Z,8.73
2018-12-11T01:49:12.504Z,12.33
2018-12-11T01:51:41.012Z,11.12
2018-12-11T01:54:09.532Z,8.95
2018-12-11T01:56:38.161Z,8.68
2018-12-11T01:59:06.954Z,10.03
2018-12-11T02:01:35.524Z,10.72
2018-12-11T02:04:04.106Z,11.53
2018-12-11T02:06:35.225Z,10.80
2018-12-11T02:09:05.390Z,10.98
2018-12-11T02:11:34.528Z,11.57
2018-12-11T02:14:03.878Z,11.03
2018-12-11T02:16:32.385Z,11.05
2018-12-11T02:19:01.083Z,12.03
2018-12-11T02:21:29.717Z,10.18
2018-12-11T02:23:58.245Z,10.82
2018-12-11T02:26:26.890Z,8.93
2018-12-11T02:28:55.399Z,11.10
2018-12-11T02:31:23.926Z,9.00
2018-12-11T02:33:52.443Z,10.32
2018-12-11T02:36:21.004Z,10.28
2018-12-11T02:38:49.579Z,10.45
2018-12-11T02:41:18.091Z,9.58
2018-12-11T02:43:46.643Z,10.18
2018-12-11T02:46:15.343Z,10.88
2018-12-11T02:48:43.940Z,9.90
2018-12-11T02:51:12.489Z,9.33
2018-12-11T02:53:41.021Z,8.25
2018-12-11T02:56:09.620Z,9.05
2018-12-11T02:58:38.518Z,9.98
2018-12-11T03:01:07.143Z,8.83
2018-12-11T03:03:35.647Z,9.40
2018-12-11T03:06:04.198Z,9.63
2018-12-11T03:08:32.775Z,9.90
2018-12-11T03:11:01.358Z,10.32
2018-12-11T03:13:29.956Z,9.08
2018-12-11T03:15:58.456Z,9.33
2018-12-11T03:18:27.000Z,9.70
2018-12-11T03:20:55.488Z,9.83
2018-12-11T03:23:24.598Z,10.25
2018-12-11T03:25:53.133Z,9.73
2018-12-11T03:28:21.656Z,10.40
2018-12-11T03:30:50.202Z,10.30
2018-12-11T03:33:19.373Z,9.38
2018-12-11T03:35:47.888Z,9.83
2018-12-11T03:38:16.645Z,10.75
2018-12-11T03:40:45.686Z,10.63
2018-12-11T03:43:14.187Z,11.55
2018-12-11T03:45:43.328Z,11.75
2018-12-11T03:48:11.999Z,11.70
2018-12-11T03:50:41.115Z,12.20
2018-12-11T03:53:09.664Z,11.60
2018-12-11T03:55:38.219Z,11.25
2018-12-11T03:58:06.850Z,13.18
2018-12-11T04:00:35.379Z,11.93
2018-12-11T04:03:03.929Z,11.30
2018-12-11T04:05:32.520Z,12.07
2018-12-11T04:08:01.755Z,11.63
2018-12-11T04:10:30.336Z,12.18
2018-12-11T04:12:58.864Z,11.38
2018-12-11T04:15:27.645Z,11.28
2018-12-11T04:17:56.295Z,12.30
2018-12-11T04:20:24.803Z,11.88
2018-12-11T04:22:53.347Z,11.88
2018-12-11T04:25:22.273Z,11.40
2018-12-11T04:27:50.897Z,11.23
2018-12-11T04:30:19.629Z,11.38
2018-12-11T04:32:48.149Z,11.75
2018-12-11T04:35:16.747Z,11.15
2018-12-11T04:37:45.324Z,10.93
2018-12-11T04:40:13.979Z,10.77
2018-12-11T04:42:42.517Z,10.68
2018-12-11T04:45:11.029Z,10.40
2018-12-11T04:47:39.549Z,10.45
2018-12-11T04:50:08.132Z,9.90
2018-12-11T04:52:36.726Z,10.58
2018-12-11T04:55:05.889Z,10.75
2018-12-11T04:57:34.626Z,10.97
2018-12-11T05:00:04.441Z,10.63
2018-12-11T05:02:33.145Z,11.30
2018-12-11T05:05:02.316Z,11.78
2018-12-11T05:07:30.962Z,11.93
2018-12-11T05:09:59.587Z,12.00
2018-12-11T05:12:28.175Z,11.00
2018-12-11T05:14:56.839Z,11.50
2018-12-11T05:17:25.838Z,11.97
2018-12-11T05:19:55.559Z,13.03
2018-12-11T05:22:24.102Z,12.88
2018-12-11T05:24:52.648Z,13.30
2018-12-11T05:27:21.953Z,13.72
2018-12-11T05:29:50.536Z,13.38
2018-12-11T05:32:19.065Z,13.35
2018-12-11T05:34:47.638Z,13.38
2018-12-11T05:37:16.182Z,13.83
2018-12-11T05:39:44.708Z,13.75
2018-12-11T05:42:13.313Z,14.00
2018-12-11T05:44:41.936Z,13.93
2018-12-11T05:47:10.902Z,14.80
2018-12-11T05:49:39.427Z,14.65
2018-12-11T05:52:08.127Z,16.45
2018-12-11T05:54:37.010Z,15.18
2018-12-11T05:57:05.696Z,16.77
2018-12-11T05:59:34.295Z,15.98
2018-12-11T06:02:03.470Z,14.63
2018-12-11T06:04:32.089Z,15.03
2018-12-11T06:07:00.580Z,15.93
2018-12-11T06:09:29.590Z,17.00
2018-12-11T06:11:58.114Z,17.80
2018-12-11T06:14:27.352Z,19.05
2018-12-11T06:16:55.946Z,23.85
2018-12-11T06:19:24.566Z,24.65
2018-12-11T06:21:53.272Z,20.72
2018-12-11T06:24:21.951Z,21.17
2018-12-11T06:26:57.551Z,19.20
2018-12-11T06:29:26.685Z,21.42
2018-12-11T06:31:55.387Z,21.82
2018-12-11T06:34:23.960Z,21.60
2018-12-11T06:36:52.652Z,22.47
2018-12-11T06:39:21.265Z,22.25
2018-12-11T06:41:50.002Z,23.05
2018-12-11T06:44:18.679Z,21.70
2018-12-11T06:46:47.257Z,22.05
2018-12-11T06:49:15.897Z,23.83
2018-12-11T06:51:44.756Z,32.65
2018-12-11T06:54:13.318Z,27.80
2018-12-11T06:56:41.927Z,81.73
2018-12-11T06:59:10.512Z,64.45
2018-12-11T07:01:39.057Z,32.30
2018-12-11T07:04:07.783Z,83.07
2018-12-11T07:06:36.370Z,142.60
2018-12-11T07:09:06.239Z,85.67
2018-12-11T07:11:34.793Z,69.35
2018-12-11T07:14:03.379Z,109.35
2018-12-11T07:16:31.957Z,49.18
2018-12-11T07:19:00.520Z,33.92
2018-12-11T07:21:29.093Z,30.75
2018-12-11T07:23:57.639Z,30.80
2018-12-11T07:26:26.161Z,28.70
2018-12-11T07:28:54.757Z,31.77
2018-12-11T07:31:24.084Z,27.27
2018-12-11T07:33:52.597Z,26.25
2018-12-11T07:36:21.149Z,21.10
2018-12-11T07:38:50.111Z,24.07
2018-12-11T07:41:18.728Z,21.62
2018-12-11T07:43:47.290Z,19.95
2018-12-11T07:46:15.926Z,24.18
2018-12-11T07:48:44.477Z,29.82
2018-12-11T07:51:13.022Z,39.07
2018-12-11T07:53:41.507Z,23.00
2018-12-11T07:56:10.011Z,24.02
2018-12-11T07:58:38.708Z,24.32
2018-12-11T08:01:07.484Z,21.77
2018-12-11T08:03:36.478Z,19.67
2018-12-11T08:06:05.061Z,20.75
2018-12-11T08:08:33.600Z,21.53
2018-12-11T08:11:02.149Z,20.35
2018-12-11T08:13:30.696Z,19.10
2018-12-11T08:15:59.300Z,21.80
2018-12-11T08:18:27.845Z,22.60
2018-12-11T08:20:56.394Z,20.68
2018-12-11T08:23:25.335Z,23.18
2018-12-11T08:25:53.821Z,21.20
2018-12-11T08:28:22.392Z,20.52
2018-12-11T08:30:51.239Z,19.15
2018-12-11T08:33:19.965Z,19.65
2018-12-11T08:35:48.540Z,18.48
2018-12-11T08:38:17.051Z,18.17
2018-12-11T08:40:45.638Z,17.57
2018-12-11T08:43:14.235Z,18.30
2018-12-11T08:45:42.761Z,17.90
2018-12-11T08:48:11.249Z,18.23
2018-12-11T08:50:39.933Z,18.02
2018-12-11T08:53:08.413Z,16.82
2018-12-11T08:55:37.001Z,17.35
2018-12-11T08:58:05.569Z,17.05
2018-12-11T09:00:34.059Z,16.52
2018-12-11T09:03:02.745Z,18.98
2018-12-11T09:05:31.352Z,22.82
2018-12-11T09:07:59.935Z,15.40
2018-12-11T09:10:29.137Z,18.00
2018-12-11T09:12:57.716Z,16.57
2018-12-11T09:15:26.554Z,15.32
2018-12-11T09:17:55.851Z,16.62
2018-12-11T09:20:24.382Z,15.80
2018-12-11T09:22:53.090Z,15.75
2018-12-11T09:25:21.605Z,16.48
2018-12-11T09:27:50.382Z,22.57
2018-12-11T09:30:18.946Z,24.17
2018-12-11T09:32:47.453Z,16.12
2018-12-11T09:35:15.952Z,17.10
2018-12-11T09:37:44.523Z,17.05
2018-12-11T09:40:13.156Z,17.35
2018-12-11T09:42:41.844Z,18.07
2018-12-11T09:45:10.452Z,16.87
2018-12-11T09:47:38.961Z,17.57
2018-12-11T09:50:07.574Z,18.05
2018-12-11T09:52:36.168Z,17.55
2018-12-11T09:55:05.104Z,17.55
2018-12-11T09:57:33.688Z,16.15
2018-12-11T10:00:02.240Z,15.45
2018-12-11T10:02:30.725Z,16.70
2018-12-11T10:04:59.283Z,15.63
2018-12-11T10:07:27.932Z,14.20
2018-12-11T10:09:56.468Z,13.68
2018-12-11T10:12:24.996Z,14.93
2018-12-11T10:14:54.292Z,15.20
2018-12-11T10:17:22.896Z,13.70
2018-12-11T10:19:51.944Z,14.47
2018-12-11T10:22:20.475Z,13.75
2018-12-11T10:24:49.020Z,13.22
2018-12-11T10:27:17.558Z,12.55
2018-12-11T10:29:46.046Z,11.40
2018-12-11T10:32:14.716Z,11.60
2018-12-11T10:34:43.249Z,11.70
2018-12-11T10:37:11.838Z,41.13
2018-12-11T10:39:41.524Z,23.00
2018-12-11T10:42:10.097Z,40.55
2018-12-11T10:44:38.756Z,8.50
2018-12-11T10:47:07.308Z,8.78
2018-12-11T10:49:35.846Z,8.07
2018-12-11T10:52:04.531Z,8.28
2018-12-11T10:54:33.123Z,6.20
2018-12-11T10:57:01.671Z,8.70
2018-12-11T10:59:30.185Z,9.33
2018-12-11T11:02:02.941Z,7.40
2018-12-11T11:04:32.212Z,8.25
2018-12-11T11:07:00.835Z,7.03
2018-12-11T11:09:29.337Z,6.37
2018-12-11T11:11:57.924Z,6.10
2018-12-11T11:14:26.598Z,7.30
2018-12-11T11:16:55.108Z,7.53
2018-12-11T11:19:23.674Z,7.58
2018-12-11T11:21:52.307Z,7.70
2018-12-11T11:24:21.051Z,7.58
2018-12-11T11:26:49.775Z,8.00
2018-12-11T11:29:18.301Z,7.40
2018-12-11T11:31:46.989Z,8.15
2018-12-11T11:34:15.636Z,8.88
2018-12-11T11:36:44.191Z,8.03
2018-12-11T11:39:13.717Z,10.82
2018-12-11T11:41:42.235Z,8.88
2018-12-11T11:44:11.436Z,8.20
2018-12-11T11:46:39.995Z,7.62
2018-12-11T11:49:08.508Z,7.67
2018-12-11T11:51:37.158Z,9.08
2018-12-11T11:54:05.680Z,8.33
2018-12-11T11:56:34.301Z,12.60
2018-12-11T11:59:02.899Z,9.43
2018-12-11T12:01:31.503Z,13.13
2018-12-11T12:04:00.126Z,7.73
2018-12-11T12:06:28.635Z,8.45
2018-12-11T12:08:59.396Z,8.43
2018-12-11T12:11:27.863Z,8.17
2018-12-11T12:13:56.530Z,11.88
2018-12-11T12:16:25.050Z,11.18
2018-12-11T12:18:53.663Z,7.70
2018-12-11T12:21:22.212Z,7.72
2018-12-11T12:23:50.713Z,6.47
2018-12-11T12:26:19.391Z,6.80
2018-12-11T12:28:47.955Z,10.40
2018-12-11T12:31:16.971Z,8.03
2018-12-11T12:33:45.541Z,7.97
2018-12-11T12:36:14.097Z,7.77
2018-12-11T12:38:42.730Z,8.83
2018-12-11T12:41:11.257Z,8.58
2018-12-11T12:43:39.793Z,8.80
2018-12-11T12:46:08.396Z,8.43
2018-12-11T12:48:36.935Z,8.28
2018-12-11T12:51:05.498Z,8.53
2018-12-11T12:53:34.009Z,9.27
2018-12-11T12:56:02.543Z,8.85
2018-12-11T12:58:31.089Z,15.30
2018-12-11T13:00:59.804Z,13.50
2018-12-11T13:03:28.576Z,8.75
2018-12-11T13:05:57.102Z,8.73
2018-12-11T13:08:25.727Z,9.80
2018-12-11T13:10:54.318Z,61.40
2018-12-11T13:13:22.842Z,83.30
2018-12-11T13:15:51.428Z,116.53
2018-12-11T13:18:19.941Z,19.23
2018-12-11T13:20:48.469Z,15.00
2018-12-11T13:23:17.023Z,9.75
2018-12-11T13:25:45.797Z,7.35
2018-12-11T13:28:14.366Z,7.12
2018-12-11T13:30:42.988Z,5.27
2018-12-11T13:33:11.530Z,9.50
2018-12-11T13:35:40.146Z,14.95
2018-12-11T13:38:08.820Z,8.40
2018-12-11T13:40:38.094Z,12.95
2018-12-11T13:43:07.798Z,14.98
2018-12-11T13:45:36.387Z,6.92
2018-12-11T13:48:05.357Z,9.18
2018-12-11T13:50:34.275Z,6.47
2018-12-11T13:53:02.886Z,7.70
2018-12-11T13:55:31.399Z,16.07
2018-12-11T13:57:59.967Z,26.73
2018-12-11T14:00:28.629Z,24.77
2018-12-11T14:02:57.447Z,17.52
2018-12-11T14:05:26.059Z,11.50
2018-12-11T14:07:54.643Z,20.50
2018-12-11T14:10:23.272Z,27.90
2018-12-11T14:12:51.758Z,22.60
2018-12-11T14:15:20.634Z,15.38
2018-12-11T14:17:49.252Z,8.50
2018-12-11T14:20:17.826Z,7.78
2018-12-11T14:22:46.408Z,13.60
2018-12-11T14:25:15.617Z,6.80
2018-12-11T14:27:44.395Z,6.67
2018-12-11T14:30:13.101Z,6.40
2018-12-11T14:32:41.572Z,7.37
2018-12-11T14:35:10.257Z,7.15
2018-12-11T14:37:38.821Z,7.78
2018-12-11T14:40:07.999Z,9.78
2018-12-11T14:42:36.575Z,8.83
2018-12-11T14:45:06.973Z,9.23
2018-12-11T14:47:39.653Z,9.60
2018-12-11T14:50:09.786Z,9.67
2018-12-11T14:52:43.746Z,9.73
2018-12-11T14:55:12.457Z,8.83
2018-12-11T14:57:44.583Z,8.20
2018-12-11T15:00:14.795Z,8.03
2018-12-11T15:02:43.677Z,15.03
2018-12-11T15:05:13.041Z,20.92
2018-12-11T15:07:42.060Z,20.05
2018-12-11T15:10:12.212Z,29.60
2018-12-11T15:12:40.861Z,32.88
2018-12-11T15:15:11.011Z,33.38
2018-12-11T15:17:40.395Z,37.55
2018-12-11T15:20:09.726Z,34.73
2018-12-11T15:22:38.385Z,39.25
2018-12-11T15:25:07.277Z,43.83
2018-12-11T15:27:35.957Z,72.72
2018-12-11T15:30:05.155Z,84.67
2018-12-11T15:32:33.791Z,79.85
2018-12-11T15:35:02.427Z,82.05
2018-12-11T15:37:31.028Z,90.10
2018-12-11T15:39:59.717Z,85.97
2018-12-11T15:42:28.347Z,85.43
2018-12-11T15:44:59.123Z,81.67
2018-12-11T15:47:27.925Z,66.87
2018-12-11T15:49:58.178Z,60.63
2018-12-11T15:52:26.888Z,58.95
2018-12-11T15:54:55.797Z,61.77
2018-12-11T15:57:24.408Z,70.57
2018-12-11T15:59:53.094Z,90.72
2018-12-11T16:02:21.766Z,92.08
2018-12-11T16:04:50.414Z,90.90
2018-12-11T16:07:18.969Z,88.33
2018-12-11T16:09:47.651Z,91.55
2018-12-11T16:12:16.386Z,88.07
2018-12-11T16:14:44.926Z,156.70
2018-12-11T16:17:13.476Z,124.83
2018-12-11T16:19:42.157Z,111.47
2018-12-11T16:22:11.763Z,104.38
2018-12-11T16:24:40.434Z,95.67
2018-12-11T16:27:09.073Z,92.12
2018-12-11T16:29:37.623Z,91.80
2018-12-11T16:32:06.175Z,93.52
2018-12-11T16:34:34.772Z,95.47
2018-12-11T16:37:03.930Z,95.57
2018-12-11T16:39:32.856Z,96.47
2018-12-11T16:42:02.875Z,97.78
2018-12-11T16:44:36.023Z,92.82
2018-12-11T16:47:05.249Z,96.65
2018-12-11T16:49:33.811Z,99.45
2018-12-11T16:52:02.326Z,98.33
2018-12-11T16:54:30.907Z,109.57
2018-12-11T16:56:59.514Z,112.52
2018-12-11T16:59:28.471Z,119.00
2018-12-11T17:01:57.146Z,140.00
2018-12-11T17:04:25.735Z,123.20
2018-12-11T17:06:54.289Z,141.65
2018-12-11T17:09:22.874Z,151.12
2018-12-11T17:11:51.417Z,143.78
2018-12-11T17:14:19.975Z,139.28
2018-12-11T17:16:48.566Z,142.93
2018-12-11T17:19:17.123Z,142.77
2018-12-11T17:21:47.028Z,141.92
2018-12-11T17:24:16.016Z,139.18
2018-12-11T17:26:44.611Z,137.80
2018-12-11T17:29:13.299Z,135.72
2018-12-11T17:31:41.851Z,133.07
2018-12-11T17:34:10.452Z,134.07
2018-12-11T17:36:38.984Z,134.07
2018-12-11T17:39:08.229Z,131.70
2018-12-11T17:41:36.843Z,132.45
2018-12-11T17:44:05.507Z,136.50
2018-12-11T17:46:34.161Z,89.83
2018-12-11T17:49:02.736Z,85.87
2018-12-11T17:51:31.302Z,119.75
2018-12-11T17:53:59.965Z,80.92
2018-12-11T17:56:28.493Z,97.93
2018-12-11T17:58:57.675Z,67.05
2018-12-11T18:01:28.361Z,104.38
2018-12-11T18:03:56.899Z,76.77
2018-12-11T18:06:25.420Z,90.22
2018-12-11T18:08:54.033Z,85.53
2018-12-11T18:11:22.641Z,84.67
2018-12-11T18:13:51.252Z,88.17
2018-12-11T18:16:19.941Z,84.80
2018-12-11T18:18:48.525Z,90.22
2018-12-11T18:21:17.705Z,72.13
2018-12-11T18:23:46.348Z,73.07
2018-12-11T18:26:14.972Z,80.60
2018-12-11T18:28:43.580Z,92.78
2018-12-11T18:31:12.191Z,106.63
2018-12-11T18:33:40.826Z,121.28
2018-12-11T18:36:09.482Z,117.77
2018-12-11T18:38:38.095Z,116.45
2018-12-11T18:41:06.738Z,115.60
2018-12-11T18:43:35.344Z,113.65
2018-12-11T18:46:03.974Z,112.77
2018-12-11T18:48:32.610Z,132.87
2018-12-11T18:51:01.254Z,124.38
2018-12-11T18:53:29.810Z,114.37
2018-12-11T18:55:58.756Z,105.50
2018-12-11T18:58:27.323Z,106.40
2018-12-11T19:00:55.864Z,102.00
2018-12-11T19:03:24.426Z,102.35
2018-12-11T19:05:53.292Z,102.90
2018-12-11T19:08:22.000Z,108.25
2018-12-11T19:10:50.624Z,99.10
2018-12-11T19:13:19.275Z,99.37
2018-12-11T19:15:48.151Z,115.63
2018-12-11T19:18:16.833Z,142.35
2018-12-11T19:20:45.834Z,119.28
2018-12-11T19:23:32.407Z,121.02
2018-12-11T19:26:15.372Z,116.90
2018-12-11T19:28:44.492Z,118.10
2018-12-11T19:31:13.079Z,106.67
2018-12-11T19:33:41.863Z,108.67
2018-12-11T19:36:10.590Z,106.05
2018-12-11T19:38:39.090Z,106.15
2018-12-11T19:41:07.776Z,109.05
2018-12-11T19:43:36.361Z,113.90
2018-12-11T19:46:04.990Z,110.10
2018-12-11T19:48:33.500Z,114.92
2018-12-11T19:51:02.341Z,108.25
2018-12-11T19:53:31.592Z,104.85
2018-12-11T19:56:00.184Z,100.92
2018-12-11T19:58:28.771Z,101.60
2018-12-11T20:00:57.304Z,97.30
2018-12-11T20:03:25.978Z,98.52
2018-12-11T20:05:54.544Z,103.92
2018-12-11T20:08:23.151Z,108.12
2018-12-11T20:10:53.972Z,109.85
2018-12-11T20:13:22.677Z,117.77
2018-12-11T20:15:51.290Z,110.78
2018-12-11T20:18:19.854Z,108.30
2018-12-11T20:20:49.434Z,110.88
2018-12-11T20:23:18.004Z,117.00
2018-12-11T20:25:47.179Z,131.25
2018-12-11T20:28:15.722Z,129.15
2018-12-11T20:30:44.263Z,121.92
2018-12-11T20:33:12.869Z,128.02
2018-12-11T20:35:43.153Z,123.53
2018-12-11T20:38:11.829Z,131.78
2018-12-11T20:40:40.375Z,138.60
2018-12-11T20:43:09.443Z,209.25
2018-12-11T20:45:38.091Z,151.95
2018-12-11T20:48:06.685Z,154.90
2018-12-11T20:50:35.402Z,162.75
2018-12-11T20:53:04.005Z,176.02
2018-12-11T20:55:32.606Z,192.72
2018-12-11T20:58:01.136Z,198.47
2018-12-11T21:00:33.932Z,188.12
2018-12-11T21:03:03.053Z,192.30
2018-12-11T21:05:31.645Z,199.47
2018-12-11T21:08:00.242Z,198.30
2018-12-11T21:10:29.334Z,203.22
2018-12-11T21:12:57.853Z,199.37
2018-12-11T21:15:26.401Z,202.38
2018-12-11T21:17:54.899Z,201.07
2018-12-11T21:20:23.813Z,210.63
2018-12-11T21:22:52.458Z,208.68
2018-12-11T21:25:21.137Z,209.52
2018-12-11T21:27:49.819Z,202.55
2018-12-11T21:30:18.382Z,195.03
2018-12-11T21:32:46.896Z,194.50
2018-12-11T21:35:15.462Z,188.22
2018-12-11T21:37:44.041Z,175.47
2018-12-11T21:40:12.782Z,185.97
2018-12-11T21:42:41.460Z,178.87
2018-12-11T21:45:10.141Z,157.87
2018-12-11T21:47:38.646Z,153.70
2018-12-11T21:50:08.527Z,160.03
2018-12-11T21:52:37.176Z,176.02
2018-12-11T21:55:07.015Z,189.25
2018-12-11T21:57:35.676Z,195.60
2018-12-11T22:00:06.432Z,199.57
2018-12-11T22:02:36.183Z,194.50
2018-12-11T22:05:05.374Z,193.50
2018-12-11T22:07:34.146Z,193.62
2018-12-11T22:10:02.962Z,193.07
2018-12-11T22:12:40.006Z,194.95
2018-12-11T22:15:08.827Z,284.35
2018-12-11T22:17:45.394Z,195.62
2018-12-11T22:20:13.988Z,186.00
2018-12-11T22:22:42.992Z,179.03
2018-12-11T22:25:11.696Z,175.23
2018-12-11T22:27:40.298Z,165.97
2018-12-11T22:30:09.072Z,169.32
2018-12-11T22:32:37.804Z,165.60
2018-12-11T22:35:06.392Z,159.95
2018-12-11T22:37:35.104Z,155.00
2018-12-11T22:40:04.130Z,142.37
2018-12-11T22:42:32.736Z,138.72
2018-12-11T22:45:01.385Z,138.12
2018-12-11T22:47:29.942Z,135.82
2018-12-11T22:49:58.521Z,130.37
2018-12-11T22:52:27.094Z,125.78
2018-12-11T22:54:55.658Z,123.40
2018-12-11T22:57:24.164Z,120.70
2018-12-11T22:59:52.682Z,122.75
2018-12-11T23:02:21.269Z,127.53
2018-12-11T23:04:50.000Z,131.07
2018-12-11T23:07:18.577Z,123.70
2018-12-11T23:09:47.202Z,106.70
2018-12-11T23:12:15.842Z,103.22
2018-12-11T23:14:44.432Z,102.42
2018-12-11T23:17:12.960Z,93.13
2018-12-11T23:19:41.480Z,89.42
2018-12-11T23:22:10.052Z,82.45
2018-12-11T23:59:02.524Z,69.53
